This is the latest recevied weather packets stored in our database for station/object CT1ETE. If no packets are shown the sender has not sent any weather packets the latest 10 day(s).
| Time | Temp. | Humidity | Pressure | Rain* | Wind** | Luminosity | Snow |
|---|---|---|---|---|---|---|---|
| 1777590878 | 12.78° C | 86% | 1019.1 hPa | 0 mm | - | - | - |
| 1777588240 | 12.78° C | 85% | 1019 hPa | 0 mm | - | - | - |
| 1777586439 | 12.78° C | 85% | 1019.1 hPa | 0 mm | - | - | - |
| 1777577430 | 15° C | 79% | 1018 hPa | 0 mm | - | - | - |
| 1777572921 | 16.67° C | 73% | 1017.5 hPa | 0 mm | - | - | - |
| 1777572030 | 16.67° C | 73% | 1017.6 hPa | 0 mm | - | - | - |
| 1777564822 | 16.67° C | 72% | 1017.4 hPa | 0 mm | - | - | - |
| 1777564335 | 16.67° C | 73% | 1017.3 hPa | 0 mm | - | - | - |
| 1777558511 | 16.67° C | 71% | 1017.4 hPa | 0 mm | - | - | - |
| 1777558025 | 16.67° C | 70% | 1017.3 hPa | 0 mm | - | - | - |
| 1777553111 | 17.22° C | 67% | 1016.9 hPa | 0 mm | - | - | - |
| 1777551311 | 16.11° C | 73% | 1017 hPa | 0 mm | - | - | - |
| 1777540497 | 15° C | 81% | 1016.1 hPa | 0 mm | - | - | - |
| 1777537791 | 14.44° C | 84% | 1015.8 hPa | 0 mm | - | - | - |
| 1777534190 | 13.33° C | 86% | 1015.2 hPa | 0 mm | - | - | - |
| 1777531905 | 13.33° C | 82% | 1014.8 hPa | 0 mm | - | - | - |
| 1777523373 | 12.78° C | 86% | 1013.9 hPa | 0 mm | - | - | - |
| 1777516172 | 13.33° C | 85% | 1013.2 hPa | 0 mm | - | - | - |
| 1777512073 | 13.33° C | 84% | 1012.8 hPa | 0 mm | - | - | - |
| 1777510764 | 13.33° C | 84% | 1012.9 hPa | 0 mm | - | - | - |
| 1777509864 | 13.33° C | 84% | 1012.8 hPa | 0 mm | - | - | - |
| 1777505357 | 13.33° C | 83% | 1012.1 hPa | 0 mm | - | - | - |
| 1777502165 | 13.33° C | 83% | 1011.7 hPa | 0 mm | - | - | - |
| 1777501269 | 13.33° C | 82% | 1011.5 hPa | 0 mm | - | - | - |
| 1777498975 | 13.89° C | 80% | 1011.3 hPa | 0 mm | - | - | - |
* Rain latest hour (hover to see other rain measurements)
** Current wind speed in m/s (hover to see current wind gust speed)